createdAt,value
2022-10-29T00:00:39.384Z,99705.00
2022-10-29T00:03:06.496Z,99702.88
2022-10-29T00:05:34.122Z,99700.34
2022-10-29T00:08:02.040Z,99707.16
2022-10-29T00:10:29.732Z,99703.53
2022-10-29T00:12:56.946Z,99696.22
2022-10-29T00:15:23.706Z,99700.69
2022-10-29T00:17:50.534Z,99708.16
2022-10-29T00:20:20.938Z,99706.72
2022-10-29T00:22:48.281Z,99696.59
2022-10-29T00:25:15.126Z,99701.00
2022-10-29T00:27:41.871Z,99702.84
2022-10-29T00:30:09.354Z,99709.97
2022-10-29T00:32:36.068Z,99707.63
2022-10-29T00:35:02.811Z,99707.56
2022-10-29T00:37:29.541Z,99717.59
2022-10-29T00:39:56.255Z,99707.41
2022-10-29T00:42:23.014Z,99714.28
2022-10-29T00:44:51.302Z,99709.56
2022-10-29T00:47:26.186Z,99702.94
2022-10-29T00:50:07.012Z,99703.59
2022-10-29T00:52:36.315Z,99708.50
2022-10-29T00:55:06.059Z,99712.63
2022-10-29T00:57:38.635Z,99708.56
2022-10-29T01:00:06.552Z,99714.44
2022-10-29T01:02:36.027Z,99725.25
2022-10-29T01:05:04.472Z,99730.91
2022-10-29T01:07:31.250Z,99733.97
2022-10-29T01:09:58.122Z,99732.09
2022-10-29T01:12:50.880Z,99724.28
2022-10-29T01:15:23.727Z,99736.19
2022-10-29T01:18:05.277Z,99736.34
2022-10-29T01:20:58.459Z,99731.78
2022-10-29T01:23:45.251Z,99731.06
2022-10-29T01:26:43.016Z,99732.50
2022-10-29T01:29:34.724Z,99737.41
2022-10-29T01:32:10.490Z,99743.25
2022-10-29T01:34:59.991Z,99757.63
2022-10-29T01:37:37.259Z,99761.38
2022-10-29T01:40:48.894Z,99765.16
2022-10-29T01:43:33.817Z,99765.38
2022-10-29T01:46:10.377Z,99759.19
2022-10-29T01:48:40.185Z,99755.28
2022-10-29T01:51:10.850Z,99760.84
2022-10-29T01:53:38.425Z,99756.44
2022-10-29T01:56:05.378Z,99766.59
2022-10-29T01:58:33.619Z,99771.84
2022-10-29T02:01:30.592Z,99776.66
2022-10-29T02:04:25.416Z,99771.38
2022-10-29T02:07:17.939Z,99764.59
2022-10-29T02:10:08.538Z,99764.19
2022-10-29T02:12:45.813Z,99750.44
2022-10-29T02:15:35.395Z,99749.22
2022-10-29T02:18:04.623Z,99751.19
2022-10-29T02:20:31.440Z,99753.78
2022-10-29T02:22:58.246Z,99742.88
2022-10-29T02:25:25.374Z,99747.50
2022-10-29T02:27:52.216Z,99742.13
2022-10-29T02:30:19.158Z,99739.56
2022-10-29T02:32:45.879Z,99734.75
2022-10-29T02:35:12.642Z,99737.69
2022-10-29T02:37:39.500Z,99730.75
2022-10-29T02:40:06.799Z,99731.25
2022-10-29T02:42:33.671Z,99726.69
2022-10-29T02:45:00.442Z,99722.59
2022-10-29T02:47:27.857Z,99721.78
2022-10-29T02:49:54.539Z,99726.81
2022-10-29T02:52:21.404Z,99729.28
2022-10-29T02:54:48.132Z,99727.97
2022-10-29T02:57:14.956Z,99743.13
2022-10-29T02:59:41.766Z,99735.06
2022-10-29T03:02:08.675Z,99733.69
2022-10-29T03:04:35.447Z,99739.13
2022-10-29T03:07:03.135Z,99733.09
2022-10-29T03:09:29.850Z,99735.88
2022-10-29T03:11:56.632Z,99728.03
2022-10-29T03:14:23.445Z,99727.63
2022-10-29T03:16:50.187Z,99731.06
2022-10-29T03:19:16.880Z,99723.25
2022-10-29T03:21:43.655Z,99737.75
2022-10-29T03:24:10.419Z,99730.56
2022-10-29T03:26:37.197Z,99731.13
2022-10-29T03:29:04.010Z,99736.13
2022-10-29T03:31:30.775Z,99749.81
2022-10-29T03:33:57.515Z,99747.41
2022-10-29T03:36:24.470Z,99753.41
2022-10-29T03:38:51.357Z,99763.25
2022-10-29T03:41:18.162Z,99754.94
2022-10-29T03:43:45.006Z,99765.75
2022-10-29T03:46:11.927Z,99769.63
2022-10-29T03:48:38.785Z,99753.53
2022-10-29T03:51:06.332Z,99766.31
2022-10-29T03:53:34.352Z,99767.69
2022-10-29T03:56:01.645Z,99768.97
2022-10-29T03:58:28.719Z,99768.66
2022-10-29T04:01:03.445Z,99762.09
2022-10-29T04:03:31.859Z,99773.31
2022-10-29T04:06:00.197Z,99769.59
2022-10-29T04:08:30.208Z,99780.22
2022-10-29T04:10:57.017Z,99781.13
2022-10-29T04:13:23.730Z,99766.44
2022-10-29T04:15:54.938Z,99769.97
2022-10-29T04:18:22.213Z,99783.84
2022-10-29T04:29:10.573Z,99779.31
2022-10-29T04:31:37.823Z,99793.78
2022-10-29T04:34:04.737Z,99790.59
2022-10-29T04:36:31.501Z,99796.53
2022-10-29T04:38:58.255Z,99798.22
2022-10-29T04:41:24.989Z,99796.56
2022-10-29T04:43:51.822Z,99799.09
2022-10-29T04:46:18.526Z,99806.09
2022-10-29T04:48:46.544Z,99819.16
2022-10-29T04:51:20.743Z,99818.13
2022-10-29T04:53:47.536Z,99817.44
2022-10-29T04:56:14.270Z,99807.50
2022-10-29T04:58:41.178Z,99810.03
2022-10-29T05:01:08.411Z,99828.03
2022-10-29T05:03:35.418Z,99828.53
2022-10-29T05:06:05.885Z,99825.38
2022-10-29T05:08:33.093Z,99819.06
2022-10-29T05:11:04.850Z,99811.03
2022-10-29T05:13:32.326Z,99817.13
2022-10-29T05:15:59.116Z,99812.66
2022-10-29T05:18:25.911Z,99821.63
2022-10-29T05:20:55.925Z,99818.50
2022-10-29T05:23:23.369Z,99821.88
2022-10-29T05:25:52.156Z,99820.25
2022-10-29T05:28:20.739Z,99815.69
2022-10-29T05:30:48.879Z,99824.00
2022-10-29T05:33:20.589Z,99827.13
2022-10-29T05:35:47.440Z,99840.44
2022-10-29T05:38:15.840Z,99837.53
2022-10-29T05:40:45.195Z,99836.13
2022-10-29T05:43:16.046Z,99833.41
2022-10-29T05:45:43.274Z,99837.72
2022-10-29T05:50:43.014Z,99829.78
2022-10-29T05:53:11.809Z,99829.44
2022-10-29T05:55:39.277Z,99841.69
2022-10-29T05:58:07.864Z,99837.34
2022-10-29T06:00:36.723Z,99836.78
2022-10-29T06:03:03.661Z,99832.09
2022-10-29T06:05:30.546Z,99828.97
2022-10-29T06:07:59.029Z,99828.00
2022-10-29T06:10:27.794Z,99822.63
2022-10-29T06:12:54.522Z,99821.94
2022-10-29T06:15:21.508Z,99820.84
2022-10-29T06:17:48.403Z,99810.81
2022-10-29T06:20:17.512Z,99823.63
2022-10-29T06:22:44.259Z,99824.22
2022-10-29T06:25:11.154Z,99831.72
2022-10-29T06:27:37.903Z,99824.00
2022-10-29T06:30:05.844Z,99828.81
2022-10-29T06:32:33.535Z,99838.38
2022-10-29T06:35:00.322Z,99846.66
2022-10-29T06:37:27.100Z,99837.53
2022-10-29T06:39:53.833Z,99829.34
2022-10-29T06:42:20.970Z,99828.66
2022-10-29T06:44:48.357Z,99819.31
2022-10-29T06:47:15.060Z,99827.44
2022-10-29T06:49:41.877Z,99832.06
2022-10-29T06:52:08.573Z,99831.97
2022-10-29T06:54:35.340Z,99840.47
2022-10-29T06:57:02.077Z,99848.16
2022-10-29T06:59:28.801Z,99851.50
2022-10-29T07:01:55.597Z,99858.72
2022-10-29T07:04:22.542Z,99854.19
2022-10-29T07:06:49.267Z,99849.47
2022-10-29T07:09:16.148Z,99851.44
2022-10-29T07:11:42.968Z,99857.69
2022-10-29T07:14:10.019Z,99844.53
2022-10-29T07:16:36.909Z,99847.09
2022-10-29T07:19:06.531Z,99847.00
2022-10-29T07:21:33.846Z,99845.44
2022-10-29T07:24:00.577Z,99854.75
2022-10-29T07:26:27.542Z,99855.81
2022-10-29T07:28:57.846Z,99860.72
2022-10-29T07:31:25.170Z,99855.75
2022-10-29T07:33:51.985Z,99859.59
2022-10-29T07:36:18.741Z,99856.88
2022-10-29T07:38:45.597Z,99850.31
2022-10-29T07:41:12.419Z,99851.78
2022-10-29T07:43:39.124Z,99854.34
2022-10-29T07:46:06.229Z,99847.94
2022-10-29T07:48:32.998Z,99852.84
2022-10-29T07:51:01.725Z,99854.13
2022-10-29T07:53:31.335Z,99859.47
2022-10-29T07:55:58.736Z,99871.94
2022-10-29T07:58:26.147Z,99872.03
2022-10-29T08:00:53.092Z,99873.72
2022-10-29T08:03:19.827Z,99889.66
2022-10-29T08:05:53.707Z,99890.97
2022-10-29T08:08:24.001Z,99891.25
2022-10-29T08:10:50.763Z,99899.06
2022-10-29T08:13:17.547Z,99906.75
2022-10-29T08:15:46.949Z,99908.75
2022-10-29T08:18:18.052Z,99915.44
2022-10-29T08:20:45.505Z,99912.75
2022-10-29T08:23:13.219Z,99907.22
2022-10-29T08:25:43.653Z,99913.50
2022-10-29T08:28:14.849Z,99909.19
2022-10-29T08:30:44.163Z,99911.41
2022-10-29T08:33:11.439Z,99911.47
2022-10-29T08:35:38.262Z,99919.56
2022-10-29T08:38:05.020Z,99920.50
2022-10-29T08:41:05.442Z,99915.31
2022-10-29T08:43:55.537Z,99913.00
2022-10-29T08:46:41.455Z,99905.69
2022-10-29T08:49:17.918Z,99903.81
2022-10-29T08:51:50.034Z,99909.19
2022-10-29T08:54:30.264Z,99904.75
2022-10-29T08:56:59.120Z,99917.69
2022-10-29T08:59:29.746Z,99912.09
2022-10-29T09:01:56.750Z,99914.19
2022-10-29T09:04:41.525Z,99918.28
2022-10-29T09:07:20.193Z,99913.63
2022-10-29T09:09:57.927Z,99923.22
2022-10-29T09:12:24.674Z,99927.28
2022-10-29T09:14:51.366Z,99929.97
2022-10-29T09:17:27.067Z,99928.78
2022-10-29T09:20:20.936Z,99929.84
2022-10-29T09:23:15.197Z,99937.34
2022-10-29T09:25:42.081Z,99934.75
2022-10-29T09:28:42.350Z,99930.34
2022-10-29T09:31:12.586Z,99926.59
2022-10-29T09:33:39.551Z,99918.91
2022-10-29T09:36:15.144Z,99930.97
2022-10-29T09:39:04.822Z,99924.19
2022-10-29T09:41:33.353Z,99940.63
2022-10-29T09:44:22.129Z,99923.34
2022-10-29T09:47:08.661Z,99926.72
2022-10-29T09:49:51.679Z,99934.44
2022-10-29T09:52:23.616Z,99932.66
2022-10-29T09:54:52.642Z,99942.50
2022-10-29T09:57:23.260Z,99935.69
2022-10-29T09:59:54.439Z,99924.19
2022-10-29T10:02:31.933Z,99927.31
2022-10-29T10:05:05.441Z,99935.50
2022-10-29T10:07:32.226Z,99935.81
2022-10-29T10:10:04.355Z,99936.03
2022-10-29T10:12:37.016Z,99927.59
2022-10-29T10:15:24.718Z,99928.00
2022-10-29T10:18:25.142Z,99935.53
2022-10-29T10:21:11.296Z,99927.63
2022-10-29T10:23:43.784Z,99920.59
2022-10-29T10:26:36.934Z,99932.19
2022-10-29T10:29:12.991Z,99928.00
2022-10-29T10:31:44.857Z,99927.63
2022-10-29T10:34:16.216Z,99921.81
2022-10-29T10:36:51.347Z,99917.41
2022-10-29T10:39:25.204Z,99912.50
2022-10-29T10:41:52.437Z,99907.41
2022-10-29T10:44:20.663Z,99901.47
2022-10-29T10:46:48.047Z,99908.66
2022-10-29T10:49:37.290Z,99902.78
2022-10-29T10:52:11.988Z,99894.94
2022-10-29T10:54:42.115Z,99883.66
2022-10-29T10:57:12.129Z,99897.75
2022-10-29T11:00:05.123Z,99899.72
2022-10-29T11:02:53.715Z,99897.84
2022-10-29T11:05:23.278Z,99905.94
2022-10-29T11:08:05.085Z,99898.88
2022-10-29T11:10:55.537Z,99901.72
2022-10-29T11:13:30.681Z,99889.47
2022-10-29T11:16:08.608Z,99881.94
2022-10-29T11:18:40.023Z,99881.69
2022-10-29T11:21:30.717Z,99878.63
2022-10-29T11:24:22.577Z,99866.97
2022-10-29T11:26:55.655Z,99861.19
2022-10-29T11:29:28.298Z,99868.31
2022-10-29T11:32:23.017Z,99861.91
2022-10-29T11:35:12.296Z,99867.06
2022-10-29T11:37:41.750Z,99865.44
2022-10-29T11:40:20.583Z,99863.22
2022-10-29T11:42:47.679Z,99863.22
2022-10-29T11:45:18.535Z,99864.84
2022-10-29T11:48:03.995Z,99868.00
2022-10-29T11:50:45.830Z,99861.78
2022-10-29T11:53:37.002Z,99849.38
2022-10-29T11:56:29.891Z,99860.84
2022-10-29T11:59:02.671Z,99857.66
2022-10-29T12:01:47.956Z,99852.34
2022-10-29T12:04:26.298Z,99848.50
2022-10-29T12:07:28.435Z,99846.44
2022-10-29T12:10:19.594Z,99841.13
2022-10-29T12:13:03.835Z,99844.09
2022-10-29T12:15:38.282Z,99833.31
2022-10-29T12:18:26.922Z,99829.53
2022-10-29T12:21:42.279Z,99829.56
2022-10-29T12:24:39.373Z,99835.72
2022-10-29T12:27:27.360Z,99843.34
2022-10-29T12:30:04.835Z,99832.50
2022-10-29T12:33:02.594Z,99835.16
2022-10-29T12:35:58.172Z,99835.78
2022-10-29T12:38:31.035Z,99835.81
2022-10-29T12:41:13.143Z,99835.38
2022-10-29T12:43:41.048Z,99831.63
2022-10-29T12:46:32.120Z,99839.44
2022-10-29T12:49:10.848Z,99826.06
2022-10-29T12:51:49.925Z,99835.00
2022-10-29T12:54:23.073Z,99823.88
2022-10-29T12:56:50.631Z,99832.84
2022-10-29T12:59:23.486Z,99822.44
2022-10-29T13:05:06.734Z,99816.28
2022-10-29T13:07:34.198Z,99813.81
2022-10-29T13:10:22.935Z,99821.41
2022-10-29T13:12:58.644Z,99818.38
2022-10-29T13:15:30.857Z,99825.66
2022-10-29T13:18:01.062Z,99820.00
2022-10-29T13:20:35.542Z,99819.28
2022-10-29T13:23:05.314Z,99813.31
2022-10-29T13:25:37.826Z,99817.94
2022-10-29T13:28:27.462Z,99817.69
2022-10-29T13:31:14.487Z,99804.66
2022-10-29T13:33:41.255Z,99802.78
2022-10-29T13:36:16.996Z,99798.94
2022-10-29T13:38:58.148Z,99785.91
2022-10-29T13:41:43.901Z,99782.94
2022-10-29T13:44:17.335Z,99793.97
2022-10-29T13:46:56.728Z,99787.22
2022-10-29T13:49:41.015Z,99784.75
2022-10-29T13:52:17.830Z,99789.31
2022-10-29T13:55:00.537Z,99772.56
2022-10-29T13:57:52.161Z,99771.09
2022-10-29T14:00:20.748Z,99761.19
2022-10-29T14:03:02.856Z,99769.03
2022-10-29T14:05:40.490Z,99759.31
2022-10-29T14:08:25.237Z,99754.47
2022-10-29T14:10:54.955Z,99752.75
2022-10-29T14:13:32.923Z,99749.72
2022-10-29T14:16:06.079Z,99744.38
2022-10-29T14:18:46.604Z,99735.41
2022-10-29T14:21:26.732Z,99743.19
2022-10-29T14:24:00.849Z,99733.28
2022-10-29T14:26:30.041Z,99734.69
2022-10-29T14:28:57.129Z,99729.06
2022-10-29T14:31:25.434Z,99725.88
2022-10-29T14:33:57.394Z,99731.00
2022-10-29T14:36:41.871Z,99718.81
2022-10-29T14:39:28.791Z,99719.63
2022-10-29T14:41:59.744Z,99709.59
2022-10-29T14:44:29.107Z,99710.06
2022-10-29T14:47:08.894Z,99709.53
2022-10-29T14:49:39.646Z,99696.00
2022-10-29T14:52:14.599Z,99686.34
2022-10-29T14:54:41.722Z,99679.00
2022-10-29T14:57:17.536Z,99681.91
2022-10-29T14:59:51.189Z,99671.91
2022-10-29T15:02:37.183Z,99681.38
2022-10-29T15:05:21.078Z,99682.72
2022-10-29T15:07:48.197Z,99681.34
2022-10-29T15:10:25.013Z,99671.91
2022-10-29T15:12:52.860Z,99672.28
2022-10-29T15:15:25.658Z,99661.13
2022-10-29T15:18:00.884Z,99647.78
2022-10-29T15:20:34.436Z,99644.75
2022-10-29T15:23:01.356Z,99645.56
2022-10-29T15:25:29.938Z,99659.53
2022-10-29T15:27:57.134Z,99653.72
2022-10-29T15:30:34.425Z,99654.50
2022-10-29T15:33:03.167Z,99644.63
2022-10-29T15:35:30.239Z,99649.66
2022-10-29T15:37:57.145Z,99643.06
2022-10-29T15:40:25.865Z,99655.53
2022-10-29T15:42:53.949Z,99651.25
2022-10-29T15:45:26.967Z,99639.16
2022-10-29T15:48:19.826Z,99621.25
2022-10-29T15:50:46.624Z,99627.94
2022-10-29T15:53:15.900Z,99604.66
2022-10-29T15:55:43.147Z,99598.69
2022-10-29T15:58:15.574Z,99583.38
2022-10-29T16:00:42.895Z,99591.72
2022-10-29T16:03:18.424Z,99588.75
2022-10-29T16:05:47.995Z,99577.09
2022-10-29T16:08:32.127Z,99593.72
2022-10-29T16:11:01.260Z,99594.50
2022-10-29T16:13:29.577Z,99589.41
2022-10-29T16:15:56.472Z,99588.56
2022-10-29T16:18:23.437Z,99573.72
2022-10-29T16:20:58.184Z,99560.81
2022-10-29T16:23:25.043Z,99564.53
2022-10-29T16:25:51.786Z,99572.63
2022-10-29T16:28:18.566Z,99582.31
2022-10-29T16:30:53.047Z,99581.03
2022-10-29T16:33:20.216Z,99575.31
2022-10-29T16:35:47.014Z,99589.59
2022-10-29T16:38:13.834Z,99588.78
2022-10-29T16:40:42.691Z,99600.03
2022-10-29T16:43:09.819Z,99599.28
2022-10-29T16:45:36.975Z,99591.47
2022-10-29T16:48:03.996Z,99572.28
2022-10-29T16:50:32.689Z,99564.53
2022-10-29T16:53:01.441Z,99561.50
2022-10-29T16:55:29.131Z,99554.25
2022-10-29T16:57:56.741Z,99532.63
2022-10-29T17:00:26.051Z,99538.16
2022-10-29T17:02:53.052Z,99550.56
2022-10-29T17:05:19.775Z,99551.06
2022-10-29T17:07:46.597Z,99564.31
2022-10-29T17:10:13.437Z,99578.16
2022-10-29T17:12:40.206Z,99574.44
2022-10-29T17:15:07.413Z,99582.81
2022-10-29T17:17:34.299Z,99571.69
2022-10-29T17:20:01.105Z,99581.16
2022-10-29T17:22:27.920Z,99581.19
2022-10-29T17:24:54.694Z,99577.47
2022-10-29T17:27:21.523Z,99563.00
2022-10-29T17:29:48.214Z,99560.25
2022-10-29T17:32:15.083Z,99572.66
2022-10-29T17:34:41.846Z,99574.19
2022-10-29T17:37:09.274Z,99577.78
2022-10-29T17:39:36.153Z,99558.22
2022-10-29T17:42:03.146Z,99549.34
2022-10-29T17:44:30.844Z,99557.88
2022-10-29T17:46:57.644Z,99550.97
2022-10-29T17:49:25.831Z,99543.59
2022-10-29T17:51:53.082Z,99540.63
2022-10-29T17:54:21.410Z,99538.72
2022-10-29T17:56:49.327Z,99534.66
2022-10-29T17:59:16.065Z,99523.00
2022-10-29T18:01:44.934Z,99505.69
2022-10-29T18:04:12.102Z,99496.41
2022-10-29T18:06:38.840Z,99486.59
2022-10-29T18:09:06.236Z,99491.16
2022-10-29T18:11:33.179Z,99496.59
2022-10-29T18:13:59.952Z,99491.88
2022-10-29T18:16:28.952Z,99491.72
2022-10-29T18:19:03.316Z,99475.56
2022-10-29T18:21:31.183Z,99459.38
2022-10-29T18:23:58.290Z,99461.16
2022-10-29T18:26:28.241Z,99473.53
2022-10-29T18:28:55.930Z,99476.50
2022-10-29T18:31:27.947Z,99472.44
2022-10-29T18:33:55.419Z,99470.34
2022-10-29T18:36:22.155Z,99453.75
2022-10-29T18:38:52.801Z,99455.09
2022-10-29T18:41:19.981Z,99455.34
2022-10-29T18:43:47.175Z,99461.22
2022-10-29T18:46:14.522Z,99468.97
2022-10-29T18:48:42.737Z,99479.03
2022-10-29T18:51:11.731Z,99469.66
2022-10-29T18:53:39.111Z,99465.91
2022-10-29T18:56:14.144Z,99464.25
2022-10-29T18:58:41.297Z,99458.34
2022-10-29T19:01:10.485Z,99465.06
2022-10-29T19:03:38.010Z,99468.28
2022-10-29T19:06:08.087Z,99474.75
2022-10-29T19:08:36.563Z,99466.13
2022-10-29T19:11:09.177Z,99462.91
2022-10-29T19:13:36.466Z,99468.50
2022-10-29T19:16:05.677Z,99453.22
2022-10-29T19:18:33.511Z,99442.81
2022-10-29T19:21:29.955Z,99440.13
2022-10-29T19:23:59.846Z,99444.06
2022-10-29T19:26:29.074Z,99427.75
2022-10-29T19:28:56.249Z,99430.72
2022-10-29T19:31:26.605Z,99418.81
2022-10-29T19:33:55.485Z,99425.00
2022-10-29T19:36:23.516Z,99434.91
2022-10-29T19:38:50.715Z,99428.19
2022-10-29T19:41:18.060Z,99433.56
2022-10-29T19:43:44.990Z,99436.78
2022-10-29T19:46:14.875Z,99429.50
2022-10-29T19:48:41.867Z,99430.03
2022-10-29T19:51:09.884Z,99423.44
2022-10-29T19:53:38.684Z,99420.44
2022-10-29T19:56:07.390Z,99407.72
2022-10-29T19:58:34.255Z,99394.59
2022-10-29T20:01:09.049Z,99399.22
2022-10-29T20:03:36.457Z,99386.59
2022-10-29T20:06:03.512Z,99394.63
2022-10-29T20:08:30.449Z,99385.38
2022-10-29T20:11:00.835Z,99385.72
2022-10-29T20:13:28.134Z,99401.38
2022-10-29T20:15:55.490Z,99405.09
2022-10-29T20:18:22.467Z,99407.97
2022-10-29T20:20:56.674Z,99410.78
2022-10-29T20:23:25.665Z,99395.47
2022-10-29T20:25:52.796Z,99380.34
2022-10-29T20:28:19.724Z,99376.09
2022-10-29T20:30:46.567Z,99387.91
2022-10-29T20:33:13.394Z,99382.25
2022-10-29T20:35:40.574Z,99387.38
2022-10-29T20:38:07.592Z,99388.22
2022-10-29T20:40:34.377Z,99376.38
2022-10-29T20:43:01.245Z,99378.09
2022-10-29T20:45:28.110Z,99364.66
2022-10-29T20:47:55.349Z,99360.03
2022-10-29T20:50:22.485Z,99370.56
2022-10-29T20:52:50.553Z,99368.66
2022-10-29T20:55:17.318Z,99367.31
2022-10-29T20:57:44.156Z,99376.19
2022-10-29T21:00:11.274Z,99367.88
2022-10-29T21:02:38.131Z,99378.47
2022-10-29T21:05:05.202Z,99385.16
2022-10-29T21:07:32.042Z,99384.84
2022-10-29T21:09:59.590Z,99380.09
2022-10-29T21:12:26.362Z,99368.81
2022-10-29T21:14:53.121Z,99362.06
2022-10-29T21:17:22.155Z,99362.31
2022-10-29T21:19:49.662Z,99358.03
2022-10-29T21:22:19.151Z,99350.50
2022-10-29T21:24:46.298Z,99338.91
2022-10-29T21:27:13.093Z,99330.81
2022-10-29T21:29:39.899Z,99325.97
2022-10-29T21:32:06.724Z,99325.72
2022-10-29T21:34:33.480Z,99325.44
2022-10-29T21:37:00.289Z,99315.75
2022-10-29T21:39:27.734Z,99316.56
2022-10-29T21:41:54.493Z,99315.00
2022-10-29T21:44:21.375Z,99323.03
2022-10-29T21:46:48.243Z,99319.59
2022-10-29T21:49:14.981Z,99324.69
2022-10-29T21:51:42.331Z,99318.72
2022-10-29T21:54:09.126Z,99309.00
2022-10-29T21:56:35.915Z,99318.72
2022-10-29T21:59:02.755Z,99319.84
2022-10-29T22:01:29.640Z,99328.69
2022-10-29T22:03:56.493Z,99318.78
2022-10-29T22:06:25.691Z,99312.84
2022-10-29T22:08:55.144Z,99311.50
2022-10-29T22:11:22.780Z,99301.81
2022-10-29T22:13:49.878Z,99306.38
2022-10-29T22:16:16.860Z,99306.66
2022-10-29T22:18:43.777Z,99310.66
2022-10-29T22:21:16.370Z,99312.06
2022-10-29T22:23:51.303Z,99307.72
2022-10-29T22:26:19.621Z,99307.75
2022-10-29T22:28:50.181Z,99297.50
2022-10-29T22:31:18.800Z,99296.16
2022-10-29T22:33:45.830Z,99303.22
2022-10-29T22:36:14.136Z,99294.88
2022-10-29T22:38:41.203Z,99306.41
2022-10-29T22:41:13.231Z,99301.03
2022-10-29T22:43:40.109Z,99295.66
2022-10-29T22:46:07.561Z,99309.44
2022-10-29T22:48:34.611Z,99297.31
2022-10-29T22:51:10.018Z,99291.88
2022-10-29T22:53:36.918Z,99303.25
2022-10-29T22:56:04.841Z,99297.84
2022-10-29T22:58:31.645Z,99298.19
2022-10-29T23:01:06.596Z,99299.00
2022-10-29T23:03:34.323Z,99299.75
2022-10-29T23:06:02.962Z,99272.53
2022-10-29T23:08:31.252Z,99285.19
2022-10-29T23:10:59.139Z,99285.47
2022-10-29T23:13:25.974Z,99290.84
2022-10-29T23:15:53.304Z,99288.47
2022-10-29T23:18:20.129Z,99287.13
2022-10-29T23:20:46.999Z,99284.41
2022-10-29T23:23:14.287Z,99280.06
2022-10-29T23:25:41.851Z,99286.53
2022-10-29T23:28:09.385Z,99279.53
2022-10-29T23:30:36.173Z,99289.53
2022-10-29T23:33:02.994Z,99290.09
2022-10-29T23:35:29.712Z,99276.09
2022-10-29T23:37:56.931Z,99280.69
2022-10-29T23:40:24.065Z,99284.16
2022-10-29T23:42:50.917Z,99276.91
2022-10-29T23:45:17.740Z,99277.97
2022-10-29T23:47:44.503Z,99282.56
2022-10-29T23:50:11.218Z,99284.72
2022-10-29T23:52:38.024Z,99286.34
2022-10-29T23:55:05.164Z,99276.91
2022-10-29T23:57:32.007Z,99279.38
2022-10-29T23:59:58.730Z,99282.06
